<?xml version="1.0" encoding="UTF-8" standalone="no" ?>
<gpx xmlns="http://www.topografix.com/GPX/1/1" xmlns:xsi="http://www.w3.org/2001/XMLSchema-instance" xsi:schemaLocation="http://www.topografix.com/GPX/1/1 http://www.topografix.com/GPX/1/1/gpx.xsd" version="1.1" creator="VisuGPX - https://www.visugpx.com">
  <metadata>
    <name>Les balades du confinement</name>
  </metadata>
  <trk>
    <name><![CDATA[2 avril]]></name>
    <trkseg>
      <trkpt lat="43.55054" lon="1.47654">
        <ele>207.429</ele>
        <time>2020-04-02T15:51:41Z</time>
      </trkpt>
      <trkpt lat="43.5506" lon="1.47651">
        <ele>205.22</ele>
        <time>2020-04-02T15:51:46Z</time>
      </trkpt>
      <trkpt lat="43.55066" lon="1.47645">
        <ele>202.94</ele>
        <time>2020-04-02T15:51:52Z</time>
      </trkpt>
      <trkpt lat="43.5507" lon="1.47639">
        <ele>202.869</ele>
        <time>2020-04-02T15:51:57Z</time>
      </trkpt>
      <trkpt lat="43.55076" lon="1.47632">
        <ele>204.191</ele>
        <time>2020-04-02T15:52:03Z</time>
      </trkpt>
      <trkpt lat="43.55081" lon="1.47627">
        <ele>204.647</ele>
        <time>2020-04-02T15:52:09Z</time>
      </trkpt>
      <trkpt lat="43.55088" lon="1.4762">
        <ele>204.699</ele>
        <time>2020-04-02T15:52:15Z</time>
      </trkpt>
      <trkpt lat="43.55092" lon="1.47616">
        <ele>204.75</ele>
        <time>2020-04-02T15:52:20Z</time>
      </trkpt>
      <trkpt lat="43.55097" lon="1.4761">
        <ele>204.788</ele>
        <time>2020-04-02T15:52:26Z</time>
      </trkpt>
      <trkpt lat="43.55103" lon="1.47604">
        <ele>204.784</ele>
        <time>2020-04-02T15:52:32Z</time>
      </trkpt>
      <trkpt lat="43.55109" lon="1.47598">
        <ele>204.75</ele>
        <time>2020-04-02T15:52:38Z</time>
      </trkpt>
      <trkpt lat="43.55113" lon="1.47593">
        <ele>204.713</ele>
        <time>2020-04-02T15:52:43Z</time>
      </trkpt>
      <trkpt lat="43.55118" lon="1.47589">
        <ele>204.663</ele>
        <time>2020-04-02T15:52:49Z</time>
      </trkpt>
      <trkpt lat="43.55125" lon="1.47583">
        <ele>204.59</ele>
        <time>2020-04-02T15:52:55Z</time>
      </trkpt>
      <trkpt lat="43.55131" lon="1.47579">
        <ele>204.511</ele>
        <time>2020-04-02T15:53:00Z</time>
      </trkpt>
      <trkpt lat="43.55135" lon="1.47576">
        <ele>204.422</ele>
        <time>2020-04-02T15:53:05Z</time>
      </trkpt>
      <trkpt lat="43.55142" lon="1.4757">
        <ele>204.307</ele>
        <time>2020-04-02T15:53:11Z</time>
      </trkpt>
      <trkpt lat="43.55148" lon="1.47565">
        <ele>204.2</ele>
        <time>2020-04-02T15:53:16Z</time>
      </trkpt>
      <trkpt lat="43.55153" lon="1.47559">
        <ele>204.08</ele>
        <time>2020-04-02T15:53:21Z</time>
      </trkpt>
      <trkpt lat="43.5516" lon="1.47551">
        <ele>203.933</ele>
        <time>2020-04-02T15:53:27Z</time>
      </trkpt>
      <trkpt lat="43.55164" lon="1.47545">
        <ele>203.822</ele>
        <time>2020-04-02T15:53:32Z</time>
      </trkpt>
      <trkpt lat="43.55168" lon="1.4754">
        <ele>203.696</ele>
        <time>2020-04-02T15:53:38Z</time>
      </trkpt>
      <trkpt lat="43.55173" lon="1.47534">
        <ele>203.609</ele>
        <time>2020-04-02T15:53:43Z</time>
      </trkpt>
      <trkpt lat="43.55179" lon="1.47529">
        <ele>203.545</ele>
        <time>2020-04-02T15:53:48Z</time>
      </trkpt>
      <trkpt lat="43.55184" lon="1.47523">
        <ele>203.49</ele>
        <time>2020-04-02T15:53:53Z</time>
      </trkpt>
      <trkpt lat="43.55191" lon="1.47515">
        <ele>203.475</ele>
        <time>2020-04-02T15:53:59Z</time>
      </trkpt>
      <trkpt lat="43.55194" lon="1.47506">
        <ele>203.514</ele>
        <time>2020-04-02T15:54:05Z</time>
      </trkpt>
      <trkpt lat="43.55196" lon="1.47498">
        <ele>203.548</ele>
        <time>2020-04-02T15:54:10Z</time>
      </trkpt>
      <trkpt lat="43.55203" lon="1.47493">
        <ele>203.592</ele>
        <time>2020-04-02T15:54:16Z</time>
      </trkpt>
      <trkpt lat="43.55209" lon="1.47484">
        <ele>203.628</ele>
        <time>2020-04-02T15:54:22Z</time>
      </trkpt>
      <trkpt lat="43.55214" lon="1.47477">
        <ele>203.653</ele>
        <time>2020-04-02T15:54:28Z</time>
      </trkpt>
      <trkpt lat="43.55216" lon="1.47468">
        <ele>203.685</ele>
        <time>2020-04-02T15:54:34Z</time>
      </trkpt>
      <trkpt lat="43.55216" lon="1.47461">
        <ele>203.77</ele>
        <time>2020-04-02T15:54:40Z</time>
      </trkpt>
      <trkpt lat="43.55221" lon="1.47454">
        <ele>203.875</ele>
        <time>2020-04-02T15:54:45Z</time>
      </trkpt>
      <trkpt lat="43.55227" lon="1.47444">
        <ele>204.016</ele>
        <time>2020-04-02T15:54:51Z</time>
      </trkpt>
      <trkpt lat="43.55232" lon="1.4744">
        <ele>204.144</ele>
        <time>2020-04-02T15:54:56Z</time>
      </trkpt>
      <trkpt lat="43.55242" lon="1.47435">
        <ele>204.323</ele>
        <time>2020-04-02T15:55:02Z</time>
      </trkpt>
      <trkpt lat="43.55248" lon="1.47431">
        <ele>204.485</ele>
        <time>2020-04-02T15:55:07Z</time>
      </trkpt>
      <trkpt lat="43.55253" lon="1.47426">
        <ele>204.667</ele>
        <time>2020-04-02T15:55:12Z</time>
      </trkpt>
      <trkpt lat="43.55258" lon="1.47421">
        <ele>204.904</ele>
        <time>2020-04-02T15:55:18Z</time>
      </trkpt>
      <trkpt lat="43.55266" lon="1.47416">
        <ele>205.166</ele>
        <time>2020-04-02T15:55:24Z</time>
      </trkpt>
      <trkpt lat="43.55266" lon="1.47401">
        <ele>205.485</ele>
        <time>2020-04-02T15:55:29Z</time>
      </trkpt>
      <trkpt lat="43.55267" lon="1.47399">
        <ele>205.937</ele>
        <time>2020-04-02T15:55:35Z</time>
      </trkpt>
      <trkpt lat="43.55266" lon="1.47398">
        <ele>205.972</ele>
        <time>2020-04-02T15:55:40Z</time>
      </trkpt>
      <trkpt lat="43.55263" lon="1.47392">
        <ele>206.293</ele>
        <time>2020-04-02T15:55:46Z</time>
      </trkpt>
      <trkpt lat="43.55259" lon="1.47387">
        <ele>206.626</ele>
        <time>2020-04-02T15:55:52Z</time>
      </trkpt>
      <trkpt lat="43.55258" lon="1.4738">
        <ele>206.932</ele>
        <time>2020-04-02T15:55:58Z</time>
      </trkpt>
      <trkpt lat="43.55256" lon="1.4737">
        <ele>207.128</ele>
        <time>2020-04-02T15:56:03Z</time>
      </trkpt>
      <trkpt lat="43.55249" lon="1.47361">
        <ele>207.35</ele>
        <time>2020-04-02T15:56:09Z</time>
      </trkpt>
      <trkpt lat="43.55248" lon="1.47348">
        <ele>207.546</ele>
        <time>2020-04-02T15:56:14Z</time>
      </trkpt>
      <trkpt lat="43.55243" lon="1.47341">
        <ele>207.802</ele>
        <time>2020-04-02T15:56:20Z</time>
      </trkpt>
      <trkpt lat="43.5524" lon="1.47332">
        <ele>208.021</ele>
        <time>2020-04-02T15:56:25Z</time>
      </trkpt>
      <trkpt lat="43.55237" lon="1.47325">
        <ele>208.199</ele>
        <time>2020-04-02T15:56:31Z</time>
      </trkpt>
      <trkpt lat="43.55233" lon="1.47317">
        <ele>208.471</ele>
        <time>2020-04-02T15:56:37Z</time>
      </trkpt>
      <trkpt lat="43.55228" lon="1.473">
        <ele>208.738</ele>
        <time>2020-04-02T15:56:43Z</time>
      </trkpt>
      <trkpt lat="43.55226" lon="1.47293">
        <ele>208.96</ele>
        <time>2020-04-02T15:56:48Z</time>
      </trkpt>
      <trkpt lat="43.55222" lon="1.47283">
        <ele>209.176</ele>
        <time>2020-04-02T15:56:53Z</time>
      </trkpt>
      <trkpt lat="43.55216" lon="1.47274">
        <ele>209.431</ele>
        <time>2020-04-02T15:56:59Z</time>
      </trkpt>
      <trkpt lat="43.55212" lon="1.47264">
        <ele>209.702</ele>
        <time>2020-04-02T15:57:05Z</time>
      </trkpt>
      <trkpt lat="43.55208" lon="1.47257">
        <ele>209.986</ele>
        <time>2020-04-02T15:57:11Z</time>
      </trkpt>
      <trkpt lat="43.55205" lon="1.47247">
        <ele>210.258</ele>
        <time>2020-04-02T15:57:17Z</time>
      </trkpt>
      <trkpt lat="43.55203" lon="1.47239">
        <ele>210.461</ele>
        <time>2020-04-02T15:57:22Z</time>
      </trkpt>
      <trkpt lat="43.552" lon="1.47227">
        <ele>210.678</ele>
        <time>2020-04-02T15:57:28Z</time>
      </trkpt>
      <trkpt lat="43.55196" lon="1.47217">
        <ele>210.871</ele>
        <time>2020-04-02T15:57:34Z</time>
      </trkpt>
      <trkpt lat="43.55192" lon="1.47209">
        <ele>211.045</ele>
        <time>2020-04-02T15:57:40Z</time>
      </trkpt>
      <trkpt lat="43.55188" lon="1.47202">
        <ele>211.2</ele>
        <time>2020-04-02T15:57:46Z</time>
      </trkpt>
      <trkpt lat="43.55184" lon="1.47194">
        <ele>211.342</ele>
        <time>2020-04-02T15:57:52Z</time>
      </trkpt>
      <trkpt lat="43.5518" lon="1.47186">
        <ele>211.482</ele>
        <time>2020-04-02T15:57:58Z</time>
      </trkpt>
      <trkpt lat="43.55176" lon="1.47177">
        <ele>211.614</ele>
        <time>2020-04-02T15:58:04Z</time>
      </trkpt>
      <trkpt lat="43.55173" lon="1.47168">
        <ele>211.719</ele>
        <time>2020-04-02T15:58:09Z</time>
      </trkpt>
      <trkpt lat="43.5517" lon="1.47158">
        <ele>211.841</ele>
        <time>2020-04-02T15:58:15Z</time>
      </trkpt>
      <trkpt lat="43.55165" lon="1.47148">
        <ele>211.98</ele>
        <time>2020-04-02T15:58:21Z</time>
      </trkpt>
      <trkpt lat="43.55161" lon="1.47136">
        <ele>212.127</ele>
        <time>2020-04-02T15:58:27Z</time>
      </trkpt>
      <trkpt lat="43.55157" lon="1.47126">
        <ele>212.283</ele>
        <time>2020-04-02T15:58:33Z</time>
      </trkpt>
      <trkpt lat="43.55153" lon="1.47116">
        <ele>212.448</ele>
        <time>2020-04-02T15:58:39Z</time>
      </trkpt>
      <trkpt lat="43.55149" lon="1.47106">
        <ele>212.609</ele>
        <time>2020-04-02T15:58:45Z</time>
      </trkpt>
      <trkpt lat="43.55147" lon="1.47104">
        <ele>212.753</ele>
        <time>2020-04-02T15:58:50Z</time>
      </trkpt>
      <trkpt lat="43.55145" lon="1.47098">
        <ele>212.931</ele>
        <time>2020-04-02T15:58:56Z</time>
      </trkpt>
      <trkpt lat="43.55142" lon="1.47092">
        <ele>213.081</ele>
        <time>2020-04-02T15:59:01Z</time>
      </trkpt>
      <trkpt lat="43.55138" lon="1.47084">
        <ele>213.268</ele>
        <time>2020-04-02T15:59:07Z</time>
      </trkpt>
      <trkpt lat="43.55135" lon="1.47078">
        <ele>213.432</ele>
        <time>2020-04-02T15:59:12Z</time>
      </trkpt>
      <trkpt lat="43.55131" lon="1.47068">
        <ele>213.644</ele>
        <time>2020-04-02T15:59:18Z</time>
      </trkpt>
      <trkpt lat="43.55126" lon="1.4706">
        <ele>213.867</ele>
        <time>2020-04-02T15:59:24Z</time>
      </trkpt>
      <trkpt lat="43.5512" lon="1.4705">
        <ele>214.09</ele>
        <time>2020-04-02T15:59:30Z</time>
      </trkpt>
      <trkpt lat="43.55117" lon="1.47038">
        <ele>214.309</ele>
        <time>2020-04-02T15:59:36Z</time>
      </trkpt>
      <trkpt lat="43.55114" lon="1.47033">
        <ele>214.469</ele>
        <time>2020-04-02T15:59:41Z</time>
      </trkpt>
      <trkpt lat="43.55111" lon="1.47022">
        <ele>214.65</ele>
        <time>2020-04-02T15:59:47Z</time>
      </trkpt>
      <trkpt lat="43.55108" lon="1.47015">
        <ele>214.79</ele>
        <time>2020-04-02T15:59:52Z</time>
      </trkpt>
      <trkpt lat="43.55104" lon="1.47009">
        <ele>214.948</ele>
        <time>2020-04-02T15:59:58Z</time>
      </trkpt>
      <trkpt lat="43.55101" lon="1.47003">
        <ele>215.064</ele>
        <time>2020-04-02T16:00:03Z</time>
      </trkpt>
      <trkpt lat="43.55099" lon="1.46993">
        <ele>215.169</ele>
        <time>2020-04-02T16:00:08Z</time>
      </trkpt>
      <trkpt lat="43.55093" lon="1.46981">
        <ele>215.283</ele>
        <time>2020-04-02T16:00:14Z</time>
      </trkpt>
      <trkpt lat="43.55093" lon="1.46974">
        <ele>215.393</ele>
        <time>2020-04-02T16:00:20Z</time>
      </trkpt>
      <trkpt lat="43.55095" lon="1.46966">
        <ele>215.478</ele>
        <time>2020-04-02T16:00:25Z</time>
      </trkpt>
      <trkpt lat="43.55099" lon="1.46955">
        <ele>215.456</ele>
        <time>2020-04-02T16:00:31Z</time>
      </trkpt>
      <trkpt lat="43.55103" lon="1.46949">
        <ele>215.394</ele>
        <time>2020-04-02T16:00:36Z</time>
      </trkpt>
      <trkpt lat="43.55107" lon="1.46941">
        <ele>215.29</ele>
        <time>2020-04-02T16:00:42Z</time>
      </trkpt>
      <trkpt lat="43.55109" lon="1.46931">
        <ele>215.165</ele>
        <time>2020-04-02T16:00:48Z</time>
      </trkpt>
      <trkpt lat="43.55106" lon="1.46919">
        <ele>215.049</ele>
        <time>2020-04-02T16:00:54Z</time>
      </trkpt>
      <trkpt lat="43.55104" lon="1.46912">
        <ele>214.966</ele>
        <time>2020-04-02T16:00:59Z</time>
      </trkpt>
      <trkpt lat="43.55102" lon="1.46905">
        <ele>214.912</ele>
        <time>2020-04-02T16:01:05Z</time>
      </trkpt>
      <trkpt lat="43.551" lon="1.46898">
        <ele>214.883</ele>
        <time>2020-04-02T16:01:10Z</time>
      </trkpt>
      <trkpt lat="43.55097" lon="1.46892">
        <ele>214.863</ele>
        <time>2020-04-02T16:01:15Z</time>
      </trkpt>
      <trkpt lat="43.55092" lon="1.46878">
        <ele>214.832</ele>
        <time>2020-04-02T16:01:21Z</time>
      </trkpt>
      <trkpt lat="43.5509" lon="1.4687">
        <ele>214.81</ele>
        <time>2020-04-02T16:01:27Z</time>
      </trkpt>
      <trkpt lat="43.55085" lon="1.46862">
        <ele>214.828</ele>
        <time>2020-04-02T16:01:33Z</time>
      </trkpt>
      <trkpt lat="43.55078" lon="1.46856">
        <ele>214.862</ele>
        <time>2020-04-02T16:01:39Z</time>
      </trkpt>
      <trkpt lat="43.55073" lon="1.46851">
        <ele>214.91</ele>
        <time>2020-04-02T16:01:45Z</time>
      </trkpt>
      <trkpt lat="43.55068" lon="1.46841">
        <ele>214.976</ele>
        <time>2020-04-02T16:01:51Z</time>
      </trkpt>
      <trkpt lat="43.55063" lon="1.46834">
        <ele>215.036</ele>
        <time>2020-04-02T16:01:56Z</time>
      </trkpt>
      <trkpt lat="43.55059" lon="1.46827">
        <ele>215.124</ele>
        <time>2020-04-02T16:02:02Z</time>
      </trkpt>
      <trkpt lat="43.55055" lon="1.46823">
        <ele>215.213</ele>
        <time>2020-04-02T16:02:07Z</time>
      </trkpt>
      <trkpt lat="43.55051" lon="1.46817">
        <ele>215.309</ele>
        <time>2020-04-02T16:02:12Z</time>
      </trkpt>
      <trkpt lat="43.55047" lon="1.46811">
        <ele>215.407</ele>
        <time>2020-04-02T16:02:17Z</time>
      </trkpt>
      <trkpt lat="43.55041" lon="1.468">
        <ele>215.537</ele>
        <time>2020-04-02T16:02:23Z</time>
      </trkpt>
      <trkpt lat="43.55037" lon="1.46793">
        <ele>215.648</ele>
        <time>2020-04-02T16:02:28Z</time>
      </trkpt>
      <trkpt lat="43.55034" lon="1.4679">
        <ele>215.764</ele>
        <time>2020-04-02T16:02:33Z</time>
      </trkpt>
      <trkpt lat="43.55028" lon="1.46783">
        <ele>215.918</ele>
        <time>2020-04-02T16:02:39Z</time>
      </trkpt>
      <trkpt lat="43.55024" lon="1.46779">
        <ele>216.049</ele>
        <time>2020-04-02T16:02:44Z</time>
      </trkpt>
      <trkpt lat="43.55018" lon="1.46767">
        <ele>216.213</ele>
        <time>2020-04-02T16:02:50Z</time>
      </trkpt>
      <trkpt lat="43.55015" lon="1.46763">
        <ele>216.371</ele>
        <time>2020-04-02T16:02:56Z</time>
      </trkpt>
      <trkpt lat="43.55011" lon="1.46757">
        <ele>216.506</ele>
        <time>2020-04-02T16:03:01Z</time>
      </trkpt>
      <trkpt lat="43.55006" lon="1.4675">
        <ele>216.666</ele>
        <time>2020-04-02T16:03:07Z</time>
      </trkpt>
      <trkpt lat="43.54998" lon="1.46745">
        <ele>216.834</ele>
        <time>2020-04-02T16:03:13Z</time>
      </trkpt>
      <trkpt lat="43.54993" lon="1.46744">
        <ele>216.994</ele>
        <time>2020-04-02T16:03:18Z</time>
      </trkpt>
      <trkpt lat="43.54989" lon="1.46744">
        <ele>217.232</ele>
        <time>2020-04-02T16:03:24Z</time>
      </trkpt>
      <trkpt lat="43.54986" lon="1.46749">
        <ele>217.536</ele>
        <time>2020-04-02T16:03:30Z</time>
      </trkpt>
      <trkpt lat="43.54981" lon="1.46756">
        <ele>217.835</ele>
        <time>2020-04-02T16:03:35Z</time>
      </trkpt>
      <trkpt lat="43.54976" lon="1.46759">
        <ele>218.325</ele>
        <time>2020-04-02T16:03:41Z</time>
      </trkpt>
      <trkpt lat="43.54969" lon="1.46759">
        <ele>219.063</ele>
        <time>2020-04-02T16:03:47Z</time>
      </trkpt>
      <trkpt lat="43.54965" lon="1.4676">
        <ele>219.704</ele>
        <time>2020-04-02T16:03:52Z</time>
      </trkpt>
      <trkpt lat="43.54956" lon="1.46757">
        <ele>220.537</ele>
        <time>2020-04-02T16:03:58Z</time>
      </trkpt>
      <trkpt lat="43.54951" lon="1.46756">
        <ele>221.215</ele>
        <time>2020-04-02T16:04:03Z</time>
      </trkpt>
      <trkpt lat="43.54944" lon="1.46758">
        <ele>222</ele>
        <time>2020-04-02T16:04:09Z</time>
      </trkpt>
      <trkpt lat="43.54938" lon="1.46758">
        <ele>222.652</ele>
        <time>2020-04-02T16:04:14Z</time>
      </trkpt>
      <trkpt lat="43.54932" lon="1.46756">
        <ele>223.291</ele>
        <time>2020-04-02T16:04:19Z</time>
      </trkpt>
      <trkpt lat="43.54925" lon="1.46753">
        <ele>224.014</ele>
        <time>2020-04-02T16:04:25Z</time>
      </trkpt>
      <trkpt lat="43.54919" lon="1.46751">
        <ele>224.593</ele>
        <time>2020-04-02T16:04:30Z</time>
      </trkpt>
      <trkpt lat="43.54916" lon="1.46751">
        <ele>225.16</ele>
        <time>2020-04-02T16:04:35Z</time>
      </trkpt>
      <trkpt lat="43.5491" lon="1.46754">
        <ele>225.73</ele>
        <time>2020-04-02T16:04:40Z</time>
      </trkpt>
      <trkpt lat="43.54902" lon="1.46754">
        <ele>226.431</ele>
        <time>2020-04-02T16:04:46Z</time>
      </trkpt>
      <trkpt lat="43.54896" lon="1.46753">
        <ele>227.014</ele>
        <time>2020-04-02T16:04:51Z</time>
      </trkpt>
      <trkpt lat="43.54891" lon="1.46753">
        <ele>227.688</ele>
        <time>2020-04-02T16:04:57Z</time>
      </trkpt>
      <trkpt lat="43.54884" lon="1.46752">
        <ele>228.265</ele>
        <time>2020-04-02T16:05:02Z</time>
      </trkpt>
      <trkpt lat="43.54879" lon="1.46756">
        <ele>228.976</ele>
        <time>2020-04-02T16:05:08Z</time>
      </trkpt>
      <trkpt lat="43.54875" lon="1.46762">
        <ele>229.706</ele>
        <time>2020-04-02T16:05:14Z</time>
      </trkpt>
      <trkpt lat="43.54869" lon="1.46767">
        <ele>230.313</ele>
        <time>2020-04-02T16:05:19Z</time>
      </trkpt>
      <trkpt lat="43.54863" lon="1.46772">
        <ele>230.88</ele>
        <time>2020-04-02T16:05:24Z</time>
      </trkpt>
      <trkpt lat="43.54858" lon="1.46783">
        <ele>231.549</ele>
        <time>2020-04-02T16:05:30Z</time>
      </trkpt>
      <trkpt lat="43.54852" lon="1.46789">
        <ele>232.125</ele>
        <time>2020-04-02T16:05:35Z</time>
      </trkpt>
      <trkpt lat="43.54845" lon="1.46795">
        <ele>232.698</ele>
        <time>2020-04-02T16:05:40Z</time>
      </trkpt>
      <trkpt lat="43.54837" lon="1.46803">
        <ele>233.437</ele>
        <time>2020-04-02T16:05:46Z</time>
      </trkpt>
      <trkpt lat="43.5483" lon="1.46813">
        <ele>234.072</ele>
        <time>2020-04-02T16:05:51Z</time>
      </trkpt>
      <trkpt lat="43.54828" lon="1.46811">
        <ele>234.776</ele>
        <time>2020-04-02T16:05:57Z</time>
      </trkpt>
      <trkpt lat="43.54827" lon="1.46807">
        <ele>235.407</ele>
        <time>2020-04-02T16:06:03Z</time>
      </trkpt>
      <trkpt lat="43.54825" lon="1.46803">
        <ele>235.88</ele>
        <time>2020-04-02T16:06:08Z</time>
      </trkpt>
      <trkpt lat="43.54823" lon="1.46798">
        <ele>236.31</ele>
        <time>2020-04-02T16:06:13Z</time>
      </trkpt>
      <trkpt lat="43.54819" lon="1.46793">
        <ele>236.779</ele>
        <time>2020-04-02T16:06:19Z</time>
      </trkpt>
      <trkpt lat="43.54817" lon="1.46787">
        <ele>237.132</ele>
        <time>2020-04-02T16:06:24Z</time>
      </trkpt>
      <trkpt lat="43.54814" lon="1.46782">
        <ele>237.457</ele>
        <time>2020-04-02T16:06:29Z</time>
      </trkpt>
      <trkpt lat="43.54813" lon="1.46779">
        <ele>237.814</ele>
        <time>2020-04-02T16:06:35Z</time>
      </trkpt>
      <trkpt lat="43.5481" lon="1.46772">
        <ele>238.141</ele>
        <time>2020-04-02T16:06:41Z</time>
      </trkpt>
      <trkpt lat="43.54808" lon="1.46765">
        <ele>238.44</ele>
        <time>2020-04-02T16:06:47Z</time>
      </trkpt>
      <trkpt lat="43.54807" lon="1.46757">
        <ele>238.683</ele>
        <time>2020-04-02T16:06:52Z</time>
      </trkpt>
      <trkpt lat="43.54806" lon="1.46749">
        <ele>238.934</ele>
        <time>2020-04-02T16:06:58Z</time>
      </trkpt>
      <trkpt lat="43.54804" lon="1.46741">
        <ele>239.114</ele>
        <time>2020-04-02T16:07:03Z</time>
      </trkpt>
      <trkpt lat="43.54799" lon="1.46738">
        <ele>239.325</ele>
        <time>2020-04-02T16:07:09Z</time>
      </trkpt>
      <trkpt lat="43.548" lon="1.46728">
        <ele>239.554</ele>
        <time>2020-04-02T16:07:14Z</time>
      </trkpt>
      <trkpt lat="43.54794" lon="1.4672">
        <ele>239.961</ele>
        <time>2020-04-02T16:07:20Z</time>
      </trkpt>
      <trkpt lat="43.54791" lon="1.46717">
        <ele>240.441</ele>
        <time>2020-04-02T16:07:25Z</time>
      </trkpt>
      <trkpt lat="43.54778" lon="1.46725">
        <ele>241.063</ele>
        <time>2020-04-02T16:07:30Z</time>
      </trkpt>
      <trkpt lat="43.54774" lon="1.46716">
        <ele>241.826</ele>
        <time>2020-04-02T16:07:36Z</time>
      </trkpt>
      <trkpt lat="43.54769" lon="1.46708">
        <ele>242.555</ele>
        <time>2020-04-02T16:07:42Z</time>
      </trkpt>
      <trkpt lat="43.54765" lon="1.46701">
        <ele>243.146</ele>
        <time>2020-04-02T16:07:47Z</time>
      </trkpt>
      <trkpt lat="43.54762" lon="1.46692">
        <ele>243.69</ele>
        <time>2020-04-02T16:07:52Z</time>
      </trkpt>
      <trkpt lat="43.54758" lon="1.46684">
        <ele>244.261</ele>
        <time>2020-04-02T16:07:58Z</time>
      </trkpt>
      <trkpt lat="43.54754" lon="1.46677">
        <ele>244.695</ele>
        <time>2020-04-02T16:08:03Z</time>
      </trkpt>
      <trkpt lat="43.54747" lon="1.46675">
        <ele>245.116</ele>
        <time>2020-04-02T16:08:08Z</time>
      </trkpt>
      <trkpt lat="43.54738" lon="1.4668">
        <ele>245.644</ele>
        <time>2020-04-02T16:08:14Z</time>
      </trkpt>
      <trkpt lat="43.54734" lon="1.46677">
        <ele>246.274</ele>
        <time>2020-04-02T16:08:20Z</time>
      </trkpt>
      <trkpt lat="43.54726" lon="1.46684">
        <ele>246.868</ele>
        <time>2020-04-02T16:08:25Z</time>
      </trkpt>
      <trkpt lat="43.5472" lon="1.46685">
        <ele>247.676</ele>
        <time>2020-04-02T16:08:31Z</time>
      </trkpt>
      <trkpt lat="43.54715" lon="1.46684">
        <ele>248.528</ele>
        <time>2020-04-02T16:08:37Z</time>
      </trkpt>
      <trkpt lat="43.54707" lon="1.46682">
        <ele>249.494</ele>
        <time>2020-04-02T16:08:43Z</time>
      </trkpt>
      <trkpt lat="43.54702" lon="1.46686">
        <ele>250.34</ele>
        <time>2020-04-02T16:08:48Z</time>
      </trkpt>
      <trkpt lat="43.54694" lon="1.46689">
        <ele>251.366</ele>
        <time>2020-04-02T16:08:54Z</time>
      </trkpt>
      <trkpt lat="43.54688" lon="1.46691">
        <ele>252.379</ele>
        <time>2020-04-02T16:09:00Z</time>
      </trkpt>
      <trkpt lat="43.54683" lon="1.46694">
        <ele>253.2</ele>
        <time>2020-04-02T16:09:05Z</time>
      </trkpt>
      <trkpt lat="43.54675" lon="1.46698">
        <ele>254.159</ele>
        <time>2020-04-02T16:09:11Z</time>
      </trkpt>
      <trkpt lat="43.54668" lon="1.46699">
        <ele>254.943</ele>
        <time>2020-04-02T16:09:16Z</time>
      </trkpt>
      <trkpt lat="43.5466" lon="1.46702">
        <ele>255.859</ele>
        <time>2020-04-02T16:09:22Z</time>
      </trkpt>
      <trkpt lat="43.54654" lon="1.46704">
        <ele>256.6</ele>
        <time>2020-04-02T16:09:27Z</time>
      </trkpt>
      <trkpt lat="43.54648" lon="1.46705">
        <ele>257.314</ele>
        <time>2020-04-02T16:09:32Z</time>
      </trkpt>
      <trkpt lat="43.54641" lon="1.46709">
        <ele>258.129</ele>
        <time>2020-04-02T16:09:38Z</time>
      </trkpt>
      <trkpt lat="43.54635" lon="1.46714">
        <ele>258.921</ele>
        <time>2020-04-02T16:09:44Z</time>
      </trkpt>
      <trkpt lat="43.54627" lon="1.4672">
        <ele>259.676</ele>
        <time>2020-04-02T16:09:50Z</time>
      </trkpt>
      <trkpt lat="43.54618" lon="1.46724">
        <ele>260.294</ele>
        <time>2020-04-02T16:09:55Z</time>
      </trkpt>
      <trkpt lat="43.54609" lon="1.46728">
        <ele>260.997</ele>
        <time>2020-04-02T16:10:01Z</time>
      </trkpt>
      <trkpt lat="43.54605" lon="1.46729">
        <ele>261.565</ele>
        <time>2020-04-02T16:10:06Z</time>
      </trkpt>
      <trkpt lat="43.54598" lon="1.46733">
        <ele>262.221</ele>
        <time>2020-04-02T16:10:12Z</time>
      </trkpt>
      <trkpt lat="43.5459" lon="1.46735">
        <ele>262.86</ele>
        <time>2020-04-02T16:10:18Z</time>
      </trkpt>
      <trkpt lat="43.54583" lon="1.46738">
        <ele>263.451</ele>
        <time>2020-04-02T16:10:24Z</time>
      </trkpt>
      <trkpt lat="43.54578" lon="1.4674">
        <ele>263.904</ele>
        <time>2020-04-02T16:10:29Z</time>
      </trkpt>
      <trkpt lat="43.5457" lon="1.46744">
        <ele>264.43</ele>
        <time>2020-04-02T16:10:35Z</time>
      </trkpt>
      <trkpt lat="43.54564" lon="1.46747">
        <ele>264.84</ele>
        <time>2020-04-02T16:10:40Z</time>
      </trkpt>
      <trkpt lat="43.54558" lon="1.4675">
        <ele>265.215</ele>
        <time>2020-04-02T16:10:45Z</time>
      </trkpt>
      <trkpt lat="43.54552" lon="1.46753">
        <ele>265.567</ele>
        <time>2020-04-02T16:10:50Z</time>
      </trkpt>
      <trkpt lat="43.54543" lon="1.46753">
        <ele>265.974</ele>
        <time>2020-04-02T16:10:56Z</time>
      </trkpt>
      <trkpt lat="43.54536" lon="1.46757">
        <ele>266.361</ele>
        <time>2020-04-02T16:11:02Z</time>
      </trkpt>
      <trkpt lat="43.54529" lon="1.46761">
        <ele>266.722</ele>
        <time>2020-04-02T16:11:08Z</time>
      </trkpt>
      <trkpt lat="43.54523" lon="1.46764">
        <ele>267.05</ele>
        <time>2020-04-02T16:11:14Z</time>
      </trkpt>
      <trkpt lat="43.54517" lon="1.46765">
        <ele>267.301</ele>
        <time>2020-04-02T16:11:19Z</time>
      </trkpt>
      <trkpt lat="43.54511" lon="1.46769">
        <ele>267.581</ele>
        <time>2020-04-02T16:11:25Z</time>
      </trkpt>
      <trkpt lat="43.54503" lon="1.46775">
        <ele>267.86</ele>
        <time>2020-04-02T16:11:31Z</time>
      </trkpt>
      <trkpt lat="43.54496" lon="1.46778">
        <ele>268.093</ele>
        <time>2020-04-02T16:11:36Z</time>
      </trkpt>
      <trkpt lat="43.54488" lon="1.46782">
        <ele>268.42</ele>
        <time>2020-04-02T16:11:42Z</time>
      </trkpt>
      <trkpt lat="43.54482" lon="1.46785">
        <ele>268.708</ele>
        <time>2020-04-02T16:11:47Z</time>
      </trkpt>
      <trkpt lat="43.54476" lon="1.46787">
        <ele>269.051</ele>
        <time>2020-04-02T16:11:53Z</time>
      </trkpt>
      <trkpt lat="43.5447" lon="1.46794">
        <ele>269.347</ele>
        <time>2020-04-02T16:11:59Z</time>
      </trkpt>
      <trkpt lat="43.54465" lon="1.46801">
        <ele>269.608</ele>
        <time>2020-04-02T16:12:05Z</time>
      </trkpt>
      <trkpt lat="43.5446" lon="1.46807">
        <ele>269.801</ele>
        <time>2020-04-02T16:12:10Z</time>
      </trkpt>
      <trkpt lat="43.54454" lon="1.46811">
        <ele>270.009</ele>
        <time>2020-04-02T16:12:16Z</time>
      </trkpt>
      <trkpt lat="43.54449" lon="1.46819">
        <ele>270.181</ele>
        <time>2020-04-02T16:12:21Z</time>
      </trkpt>
      <trkpt lat="43.54444" lon="1.46825">
        <ele>270.372</ele>
        <time>2020-04-02T16:12:27Z</time>
      </trkpt>
      <trkpt lat="43.54434" lon="1.46827">
        <ele>270.581</ele>
        <time>2020-04-02T16:12:33Z</time>
      </trkpt>
      <trkpt lat="43.54428" lon="1.46828">
        <ele>270.763</ele>
        <time>2020-04-02T16:12:38Z</time>
      </trkpt>
      <trkpt lat="43.54423" lon="1.46832">
        <ele>270.926</ele>
        <time>2020-04-02T16:12:43Z</time>
      </trkpt>
      <trkpt lat="43.54418" lon="1.46838">
        <ele>271.076</ele>
        <time>2020-04-02T16:12:48Z</time>
      </trkpt>
      <trkpt lat="43.5441" lon="1.46843">
        <ele>271.251</ele>
        <time>2020-04-02T16:12:54Z</time>
      </trkpt>
      <trkpt lat="43.54405" lon="1.46846">
        <ele>271.392</ele>
        <time>2020-04-02T16:12:59Z</time>
      </trkpt>
      <trkpt lat="43.54399" lon="1.46853">
        <ele>271.536</ele>
        <time>2020-04-02T16:13:05Z</time>
      </trkpt>
      <trkpt lat="43.54394" lon="1.4686">
        <ele>271.645</ele>
        <time>2020-04-02T16:13:10Z</time>
      </trkpt>
      <trkpt lat="43.54385" lon="1.46865">
        <ele>271.755</ele>
        <time>2020-04-02T16:13:16Z</time>
      </trkpt>
      <trkpt lat="43.54381" lon="1.46867">
        <ele>271.83</ele>
        <time>2020-04-02T16:13:21Z</time>
      </trkpt>
      <trkpt lat="43.54375" lon="1.46873">
        <ele>271.909</ele>
        <time>2020-04-02T16:13:27Z</time>
      </trkpt>
      <trkpt lat="43.54367" lon="1.46879">
        <ele>271.995</ele>
        <time>2020-04-02T16:13:33Z</time>
      </trkpt>
      <trkpt lat="43.5436" lon="1.46884">
        <ele>272.079</ele>
        <time>2020-04-02T16:13:39Z</time>
      </trkpt>
      <trkpt lat="43.54354" lon="1.46887">
        <ele>272.167</ele>
        <time>2020-04-02T16:13:45Z</time>
      </trkpt>
      <trkpt lat="43.54348" lon="1.46892">
        <ele>272.244</ele>
        <time>2020-04-02T16:13:50Z</time>
      </trkpt>
      <trkpt lat="43.54341" lon="1.46896">
        <ele>272.331</ele>
        <time>2020-04-02T16:13:56Z</time>
      </trkpt>
      <trkpt lat="43.54335" lon="1.46898">
        <ele>272.394</ele>
        <time>2020-04-02T16:14:01Z</time>
      </trkpt>
      <trkpt lat="43.5433" lon="1.46902">
        <ele>272.45</ele>
        <time>2020-04-02T16:14:06Z</time>
      </trkpt>
      <trkpt lat="43.54322" lon="1.46906">
        <ele>272.508</ele>
        <time>2020-04-02T16:14:12Z</time>
      </trkpt>
      <trkpt lat="43.54314" lon="1.46908">
        <ele>272.571</ele>
        <time>2020-04-02T16:14:18Z</time>
      </trkpt>
      <trkpt lat="43.54309" lon="1.46912">
        <ele>272.625</ele>
        <time>2020-04-02T16:14:23Z</time>
      </trkpt>
      <trkpt lat="43.54304" lon="1.46919">
        <ele>272.684</ele>
        <time>2020-04-02T16:14:29Z</time>
      </trkpt>
      <trkpt lat="43.543" lon="1.46924">
        <ele>272.73</ele>
        <time>2020-04-02T16:14:34Z</time>
      </trkpt>
      <trkpt lat="43.54294" lon="1.4693">
        <ele>272.779</ele>
        <time>2020-04-02T16:14:39Z</time>
      </trkpt>
      <trkpt lat="43.54288" lon="1.46934">
        <ele>272.838</ele>
        <time>2020-04-02T16:14:45Z</time>
      </trkpt>
      <trkpt lat="43.54282" lon="1.46938">
        <ele>272.891</ele>
        <time>2020-04-02T16:14:51Z</time>
      </trkpt>
      <trkpt lat="43.54276" lon="1.46941">
        <ele>272.936</ele>
        <time>2020-04-02T16:14:57Z</time>
      </trkpt>
      <trkpt lat="43.54271" lon="1.46946">
        <ele>272.968</ele>
        <time>2020-04-02T16:15:02Z</time>
      </trkpt>
      <trkpt lat="43.54264" lon="1.46953">
        <ele>273.008</ele>
        <time>2020-04-02T16:15:08Z</time>
      </trkpt>
      <trkpt lat="43.54256" lon="1.46966">
        <ele>273.047</ele>
        <time>2020-04-02T16:15:14Z</time>
      </trkpt>
      <trkpt lat="43.5425" lon="1.46978">
        <ele>273.075</ele>
        <time>2020-04-02T16:15:20Z</time>
      </trkpt>
      <trkpt lat="43.54246" lon="1.46984">
        <ele>273.089</ele>
        <time>2020-04-02T16:15:25Z</time>
      </trkpt>
      <trkpt lat="43.54242" lon="1.46992">
        <ele>273.101</ele>
        <time>2020-04-02T16:15:31Z</time>
      </trkpt>
      <trkpt lat="43.54238" lon="1.46997">
        <ele>273.109</ele>
        <time>2020-04-02T16:15:36Z</time>
      </trkpt>
      <trkpt lat="43.54232" lon="1.47004">
        <ele>273.118</ele>
        <time>2020-04-02T16:15:42Z</time>
      </trkpt>
      <trkpt lat="43.54228" lon="1.47012">
        <ele>273.123</ele>
        <time>2020-04-02T16:15:48Z</time>
      </trkpt>
      <trkpt lat="43.54222" lon="1.4702">
        <ele>273.123</ele>
        <time>2020-04-02T16:15:54Z</time>
      </trkpt>
      <trkpt lat="43.54218" lon="1.47027">
        <ele>273.121</ele>
        <time>2020-04-02T16:15:59Z</time>
      </trkpt>
      <trkpt lat="43.54215" lon="1.47032">
        <ele>273.117</ele>
        <time>2020-04-02T16:16:05Z</time>
      </trkpt>
      <trkpt lat="43.54212" lon="1.47037">
        <ele>273.11</ele>
        <time>2020-04-02T16:16:10Z</time>
      </trkpt>
      <trkpt lat="43.54207" lon="1.47045">
        <ele>273.103</ele>
        <time>2020-04-02T16:16:16Z</time>
      </trkpt>
      <trkpt lat="43.54203" lon="1.47052">
        <ele>273.098</ele>
        <time>2020-04-02T16:16:21Z</time>
      </trkpt>
      <trkpt lat="43.54197" lon="1.4706">
        <ele>273.091</ele>
        <time>2020-04-02T16:16:27Z</time>
      </trkpt>
      <trkpt lat="43.54192" lon="1.47068">
        <ele>273.088</ele>
        <time>2020-04-02T16:16:33Z</time>
      </trkpt>
      <trkpt lat="43.54187" lon="1.47074">
        <ele>273.089</ele>
        <time>2020-04-02T16:16:39Z</time>
      </trkpt>
      <trkpt lat="43.5418" lon="1.47081">
        <ele>273.093</ele>
        <time>2020-04-02T16:16:45Z</time>
      </trkpt>
      <trkpt lat="43.54174" lon="1.47088">
        <ele>273.098</ele>
        <time>2020-04-02T16:16:50Z</time>
      </trkpt>
      <trkpt lat="43.54168" lon="1.47096">
        <ele>273.101</ele>
        <time>2020-04-02T16:16:56Z</time>
      </trkpt>
      <trkpt lat="43.54165" lon="1.47101">
        <ele>273.103</ele>
        <time>2020-04-02T16:17:01Z</time>
      </trkpt>
      <trkpt lat="43.54156" lon="1.47105">
        <ele>273.106</ele>
        <time>2020-04-02T16:17:07Z</time>
      </trkpt>
      <trkpt lat="43.54149" lon="1.47109">
        <ele>273.11</ele>
        <time>2020-04-02T16:17:13Z</time>
      </trkpt>
      <trkpt lat="43.54144" lon="1.47111">
        <ele>273.114</ele>
        <time>2020-04-02T16:17:18Z</time>
      </trkpt>
      <trkpt lat="43.54136" lon="1.47111">
        <ele>273.123</ele>
        <time>2020-04-02T16:17:24Z</time>
      </trkpt>
      <trkpt lat="43.54129" lon="1.47113">
        <ele>273.134</ele>
        <time>2020-04-02T16:17:29Z</time>
      </trkpt>
      <trkpt lat="43.54121" lon="1.47111">
        <ele>273.153</ele>
        <time>2020-04-02T16:17:35Z</time>
      </trkpt>
      <trkpt lat="43.54112" lon="1.47112">
        <ele>273.183</ele>
        <time>2020-04-02T16:17:41Z</time>
      </trkpt>
      <trkpt lat="43.54106" lon="1.47112">
        <ele>273.215</ele>
        <time>2020-04-02T16:17:46Z</time>
      </trkpt>
      <trkpt lat="43.54099" lon="1.47108">
        <ele>273.256</ele>
        <time>2020-04-02T16:17:52Z</time>
      </trkpt>
      <trkpt lat="43.54093" lon="1.47106">
        <ele>273.301</ele>
        <time>2020-04-02T16:17:58Z</time>
      </trkpt>
      <trkpt lat="43.54087" lon="1.47104">
        <ele>273.342</ele>
        <time>2020-04-02T16:18:03Z</time>
      </trkpt>
      <trkpt lat="43.5408" lon="1.47101">
        <ele>273.396</ele>
        <time>2020-04-02T16:18:09Z</time>
      </trkpt>
      <trkpt lat="43.54074" lon="1.47099">
        <ele>273.446</ele>
        <time>2020-04-02T16:18:14Z</time>
      </trkpt>
      <trkpt lat="43.54068" lon="1.47098">
        <ele>273.497</ele>
        <time>2020-04-02T16:18:19Z</time>
      </trkpt>
      <trkpt lat="43.54062" lon="1.47095">
        <ele>273.558</ele>
        <time>2020-04-02T16:18:25Z</time>
      </trkpt>
      <trkpt lat="43.54053" lon="1.47096">
        <ele>273.62</ele>
        <time>2020-04-02T16:18:31Z</time>
      </trkpt>
      <trkpt lat="43.54046" lon="1.47097">
        <ele>273.687</ele>
        <time>2020-04-02T16:18:37Z</time>
      </trkpt>
      <trkpt lat="43.54039" lon="1.47096">
        <ele>273.758</ele>
        <time>2020-04-02T16:18:43Z</time>
      </trkpt>
      <trkpt lat="43.54034" lon="1.47096">
        <ele>273.821</ele>
        <time>2020-04-02T16:18:48Z</time>
      </trkpt>
      <trkpt lat="43.54024" lon="1.47096">
        <ele>273.899</ele>
        <time>2020-04-02T16:18:54Z</time>
      </trkpt>
      <trkpt lat="43.54018" lon="1.47089">
        <ele>273.962</ele>
        <time>2020-04-02T16:18:59Z</time>
      </trkpt>
      <trkpt lat="43.5401" lon="1.47088">
        <ele>274.034</ele>
        <time>2020-04-02T16:19:05Z</time>
      </trkpt>
      <trkpt lat="43.54004" lon="1.47087">
        <ele>274.09</ele>
        <time>2020-04-02T16:19:10Z</time>
      </trkpt>
      <trkpt lat="43.53997" lon="1.47089">
        <ele>274.155</ele>
        <time>2020-04-02T16:19:16Z</time>
      </trkpt>
      <trkpt lat="43.53988" lon="1.4709">
        <ele>274.219</ele>
        <time>2020-04-02T16:19:22Z</time>
      </trkpt>
      <trkpt lat="43.53984" lon="1.47089">
        <ele>274.272</ele>
        <time>2020-04-02T16:19:27Z</time>
      </trkpt>
      <trkpt lat="43.53978" lon="1.47088">
        <ele>274.324</ele>
        <time>2020-04-02T16:19:32Z</time>
      </trkpt>
      <trkpt lat="43.53971" lon="1.47091">
        <ele>274.381</ele>
        <time>2020-04-02T16:19:37Z</time>
      </trkpt>
      <trkpt lat="43.53965" lon="1.47094">
        <ele>274.449</ele>
        <time>2020-04-02T16:19:43Z</time>
      </trkpt>
      <trkpt lat="43.53958" lon="1.47097">
        <ele>274.506</ele>
        <time>2020-04-02T16:19:48Z</time>
      </trkpt>
      <trkpt lat="43.53952" lon="1.47098">
        <ele>274.564</ele>
        <time>2020-04-02T16:19:53Z</time>
      </trkpt>
      <trkpt lat="43.53948" lon="1.47098">
        <ele>274.622</ele>
        <time>2020-04-02T16:19:58Z</time>
      </trkpt>
      <trkpt lat="43.5394" lon="1.471">
        <ele>274.686</ele>
        <time>2020-04-02T16:20:04Z</time>
      </trkpt>
      <trkpt lat="43.53933" lon="1.47101">
        <ele>274.743</ele>
        <time>2020-04-02T16:20:10Z</time>
      </trkpt>
      <trkpt lat="43.53923" lon="1.47103">
        <ele>274.797</ele>
        <time>2020-04-02T16:20:16Z</time>
      </trkpt>
      <trkpt lat="43.53918" lon="1.47104">
        <ele>274.836</ele>
        <time>2020-04-02T16:20:21Z</time>
      </trkpt>
      <trkpt lat="43.53909" lon="1.47106">
        <ele>274.876</ele>
        <time>2020-04-02T16:20:27Z</time>
      </trkpt>
      <trkpt lat="43.53903" lon="1.47105">
        <ele>274.908</ele>
        <time>2020-04-02T16:20:32Z</time>
      </trkpt>
      <trkpt lat="43.53894" lon="1.47099">
        <ele>274.937</ele>
        <time>2020-04-02T16:20:38Z</time>
      </trkpt>
      <trkpt lat="43.53886" lon="1.47098">
        <ele>274.962</ele>
        <time>2020-04-02T16:20:44Z</time>
      </trkpt>
      <trkpt lat="43.53879" lon="1.47099">
        <ele>274.979</ele>
        <time>2020-04-02T16:20:49Z</time>
      </trkpt>
      <trkpt lat="43.53872" lon="1.471">
        <ele>274.996</ele>
        <time>2020-04-02T16:20:55Z</time>
      </trkpt>
      <trkpt lat="43.53868" lon="1.47106">
        <ele>275.006</ele>
        <time>2020-04-02T16:21:01Z</time>
      </trkpt>
      <trkpt lat="43.53866" lon="1.47114">
        <ele>275.005</ele>
        <time>2020-04-02T16:21:07Z</time>
      </trkpt>
      <trkpt lat="43.53863" lon="1.47121">
        <ele>274.996</ele>
        <time>2020-04-02T16:21:12Z</time>
      </trkpt>
      <trkpt lat="43.5386" lon="1.47127">
        <ele>274.983</ele>
        <time>2020-04-02T16:21:17Z</time>
      </trkpt>
      <trkpt lat="43.53858" lon="1.47133">
        <ele>274.955</ele>
        <time>2020-04-02T16:21:23Z</time>
      </trkpt>
      <trkpt lat="43.53855" lon="1.47138">
        <ele>274.913</ele>
        <time>2020-04-02T16:21:29Z</time>
      </trkpt>
      <trkpt lat="43.53851" lon="1.47143">
        <ele>274.874</ele>
        <time>2020-04-02T16:21:34Z</time>
      </trkpt>
      <trkpt lat="43.53849" lon="1.47147">
        <ele>274.819</ele>
        <time>2020-04-02T16:21:40Z</time>
      </trkpt>
      <trkpt lat="43.53847" lon="1.47152">
        <ele>274.768</ele>
        <time>2020-04-02T16:21:45Z</time>
      </trkpt>
      <trkpt lat="43.53844" lon="1.47158">
        <ele>274.694</ele>
        <time>2020-04-02T16:21:51Z</time>
      </trkpt>
      <trkpt lat="43.5384" lon="1.47165">
        <ele>274.623</ele>
        <time>2020-04-02T16:21:56Z</time>
      </trkpt>
      <trkpt lat="43.53837" lon="1.47171">
        <ele>274.546</ele>
        <time>2020-04-02T16:22:01Z</time>
      </trkpt>
      <trkpt lat="43.53833" lon="1.4718">
        <ele>274.471</ele>
        <time>2020-04-02T16:22:06Z</time>
      </trkpt>
      <trkpt lat="43.53831" lon="1.47186">
        <ele>274.384</ele>
        <time>2020-04-02T16:22:12Z</time>
      </trkpt>
      <trkpt lat="43.53828" lon="1.47195">
        <ele>274.292</ele>
        <time>2020-04-02T16:22:18Z</time>
      </trkpt>
      <trkpt lat="43.53825" lon="1.47199">
        <ele>274.215</ele>
        <time>2020-04-02T16:22:23Z</time>
      </trkpt>
      <trkpt lat="43.5382" lon="1.47211">
        <ele>274.12</ele>
        <time>2020-04-02T16:22:29Z</time>
      </trkpt>
      <trkpt lat="43.53817" lon="1.47215">
        <ele>274.024</ele>
        <time>2020-04-02T16:22:35Z</time>
      </trkpt>
      <trkpt lat="43.53815" lon="1.47216">
        <ele>273.929</ele>
        <time>2020-04-02T16:22:41Z</time>
      </trkpt>
      <trkpt lat="43.53812" lon="1.47217">
        <ele>273.801</ele>
        <time>2020-04-02T16:22:47Z</time>
      </trkpt>
      <trkpt lat="43.5381" lon="1.4722">
        <ele>273.749</ele>
        <time>2020-04-02T16:22:52Z</time>
      </trkpt>
      <trkpt lat="43.53795" lon="1.47236">
        <ele>273.625</ele>
        <time>2020-04-02T16:22:57Z</time>
      </trkpt>
      <trkpt lat="43.53791" lon="1.47245">
        <ele>273.5</ele>
        <time>2020-04-02T16:23:02Z</time>
      </trkpt>
      <trkpt lat="43.53789" lon="1.47257">
        <ele>273.353</ele>
        <time>2020-04-02T16:23:08Z</time>
      </trkpt>
      <trkpt lat="43.53786" lon="1.47268">
        <ele>273.213</ele>
        <time>2020-04-02T16:23:14Z</time>
      </trkpt>
      <trkpt lat="43.53782" lon="1.47275">
        <ele>273.093</ele>
        <time>2020-04-02T16:23:19Z</time>
      </trkpt>
      <trkpt lat="43.53778" lon="1.47281">
        <ele>272.934</ele>
        <time>2020-04-02T16:23:25Z</time>
      </trkpt>
      <trkpt lat="43.53771" lon="1.47285">
        <ele>272.787</ele>
        <time>2020-04-02T16:23:30Z</time>
      </trkpt>
      <trkpt lat="43.53766" lon="1.47293">
        <ele>272.598</ele>
        <time>2020-04-02T16:23:36Z</time>
      </trkpt>
      <trkpt lat="43.53767" lon="1.47304">
        <ele>272.404</ele>
        <time>2020-04-02T16:23:42Z</time>
      </trkpt>
      <trkpt lat="43.53768" lon="1.47309">
        <ele>272.247</ele>
        <time>2020-04-02T16:23:47Z</time>
      </trkpt>
      <trkpt lat="43.53767" lon="1.47311">
        <ele>272.093</ele>
        <time>2020-04-02T16:23:52Z</time>
      </trkpt>
      <trkpt lat="43.53773" lon="1.4733">
        <ele>271.91</ele>
        <time>2020-04-02T16:23:58Z</time>
      </trkpt>
      <trkpt lat="43.53777" lon="1.47344">
        <ele>271.738</ele>
        <time>2020-04-02T16:24:04Z</time>
      </trkpt>
      <trkpt lat="43.53778" lon="1.47353">
        <ele>271.575</ele>
        <time>2020-04-02T16:24:10Z</time>
      </trkpt>
      <trkpt lat="43.53779" lon="1.47362">
        <ele>271.401</ele>
        <time>2020-04-02T16:24:16Z</time>
      </trkpt>
      <trkpt lat="43.5378" lon="1.47372">
        <ele>271.215</ele>
        <time>2020-04-02T16:24:22Z</time>
      </trkpt>
      <trkpt lat="43.5378" lon="1.47383">
        <ele>271.027</ele>
        <time>2020-04-02T16:24:28Z</time>
      </trkpt>
      <trkpt lat="43.5378" lon="1.47393">
        <ele>270.839</ele>
        <time>2020-04-02T16:24:34Z</time>
      </trkpt>
      <trkpt lat="43.53782" lon="1.47403">
        <ele>270.679</ele>
        <time>2020-04-02T16:24:39Z</time>
      </trkpt>
      <trkpt lat="43.5378" lon="1.47406">
        <ele>270.479</ele>
        <time>2020-04-02T16:24:45Z</time>
      </trkpt>
      <trkpt lat="43.5378" lon="1.47413">
        <ele>270.311</ele>
        <time>2020-04-02T16:24:50Z</time>
      </trkpt>
      <trkpt lat="43.53785" lon="1.47426">
        <ele>270.129</ele>
        <time>2020-04-02T16:24:56Z</time>
      </trkpt>
      <trkpt lat="43.53788" lon="1.47436">
        <ele>269.955</ele>
        <time>2020-04-02T16:25:02Z</time>
      </trkpt>
      <trkpt lat="43.53789" lon="1.47441">
        <ele>269.799</ele>
        <time>2020-04-02T16:25:07Z</time>
      </trkpt>
      <trkpt lat="43.53789" lon="1.47445">
        <ele>269.627</ele>
        <time>2020-04-02T16:25:12Z</time>
      </trkpt>
      <trkpt lat="43.53791" lon="1.47454">
        <ele>269.408</ele>
        <time>2020-04-02T16:25:18Z</time>
      </trkpt>
      <trkpt lat="43.53791" lon="1.4747">
        <ele>269.15</ele>
        <time>2020-04-02T16:25:24Z</time>
      </trkpt>
      <trkpt lat="43.53791" lon="1.47479">
        <ele>268.871</ele>
        <time>2020-04-02T16:25:30Z</time>
      </trkpt>
      <trkpt lat="43.53797" lon="1.47495">
        <ele>268.616</ele>
        <time>2020-04-02T16:25:36Z</time>
      </trkpt>
      <trkpt lat="43.53801" lon="1.47503">
        <ele>268.384</ele>
        <time>2020-04-02T16:25:42Z</time>
      </trkpt>
      <trkpt lat="43.53803" lon="1.47512">
        <ele>268.2</ele>
        <time>2020-04-02T16:25:47Z</time>
      </trkpt>
      <trkpt lat="43.53813" lon="1.47524">
        <ele>267.996</ele>
        <time>2020-04-02T16:25:53Z</time>
      </trkpt>
      <trkpt lat="43.53819" lon="1.47529">
        <ele>267.805</ele>
        <time>2020-04-02T16:25:59Z</time>
      </trkpt>
      <trkpt lat="43.53824" lon="1.47535">
        <ele>267.63</ele>
        <time>2020-04-02T16:26:05Z</time>
      </trkpt>
      <trkpt lat="43.53829" lon="1.47538">
        <ele>267.466</ele>
        <time>2020-04-02T16:26:11Z</time>
      </trkpt>
      <trkpt lat="43.53833" lon="1.47542">
        <ele>267.313</ele>
        <time>2020-04-02T16:26:17Z</time>
      </trkpt>
      <trkpt lat="43.53838" lon="1.4755">
        <ele>267.168</ele>
        <time>2020-04-02T16:26:23Z</time>
      </trkpt>
      <trkpt lat="43.53841" lon="1.47566">
        <ele>267.017</ele>
        <time>2020-04-02T16:26:29Z</time>
      </trkpt>
      <trkpt lat="43.53842" lon="1.47582">
        <ele>266.889</ele>
        <time>2020-04-02T16:26:34Z</time>
      </trkpt>
      <trkpt lat="43.53843" lon="1.47594">
        <ele>266.74</ele>
        <time>2020-04-02T16:26:40Z</time>
      </trkpt>
      <trkpt lat="43.53844" lon="1.47604">
        <ele>266.623</ele>
        <time>2020-04-02T16:26:45Z</time>
      </trkpt>
      <trkpt lat="43.53844" lon="1.47616">
        <ele>266.486</ele>
        <time>2020-04-02T16:26:51Z</time>
      </trkpt>
      <trkpt lat="43.53848" lon="1.47627">
        <ele>266.357</ele>
        <time>2020-04-02T16:26:57Z</time>
      </trkpt>
      <trkpt lat="43.5385" lon="1.47634">
        <ele>266.233</ele>
        <time>2020-04-02T16:27:03Z</time>
      </trkpt>
      <trkpt lat="43.53853" lon="1.47639">
        <ele>266.11</ele>
        <time>2020-04-02T16:27:09Z</time>
      </trkpt>
      <trkpt lat="43.53855" lon="1.47647">
        <ele>265.991</ele>
        <time>2020-04-02T16:27:15Z</time>
      </trkpt>
      <trkpt lat="43.53858" lon="1.47657">
        <ele>265.893</ele>
        <time>2020-04-02T16:27:20Z</time>
      </trkpt>
      <trkpt lat="43.53865" lon="1.47662">
        <ele>265.778</ele>
        <time>2020-04-02T16:27:26Z</time>
      </trkpt>
      <trkpt lat="43.5387" lon="1.47666">
        <ele>265.669</ele>
        <time>2020-04-02T16:27:32Z</time>
      </trkpt>
      <trkpt lat="43.53871" lon="1.47679">
        <ele>265.539</ele>
        <time>2020-04-02T16:27:39Z</time>
      </trkpt>
      <trkpt lat="43.53874" lon="1.47694">
        <ele>265.445</ele>
        <time>2020-04-02T16:27:44Z</time>
      </trkpt>
      <trkpt lat="43.53877" lon="1.47704">
        <ele>265.343</ele>
        <time>2020-04-02T16:27:50Z</time>
      </trkpt>
      <trkpt lat="43.53884" lon="1.47721">
        <ele>265.247</ele>
        <time>2020-04-02T16:27:56Z</time>
      </trkpt>
      <trkpt lat="43.53888" lon="1.47729">
        <ele>265.159</ele>
        <time>2020-04-02T16:28:02Z</time>
      </trkpt>
      <trkpt lat="43.53894" lon="1.47738">
        <ele>265.078</ele>
        <time>2020-04-02T16:28:08Z</time>
      </trkpt>
      <trkpt lat="43.53899" lon="1.47745">
        <ele>265.013</ele>
        <time>2020-04-02T16:28:13Z</time>
      </trkpt>
      <trkpt lat="43.53904" lon="1.47749">
        <ele>264.941</ele>
        <time>2020-04-02T16:28:18Z</time>
      </trkpt>
      <trkpt lat="43.53908" lon="1.47756">
        <ele>264.855</ele>
        <time>2020-04-02T16:28:24Z</time>
      </trkpt>
      <trkpt lat="43.53911" lon="1.47762">
        <ele>264.764</ele>
        <time>2020-04-02T16:28:30Z</time>
      </trkpt>
      <trkpt lat="43.53913" lon="1.47767">
        <ele>264.688</ele>
        <time>2020-04-02T16:28:35Z</time>
      </trkpt>
      <trkpt lat="43.53916" lon="1.47776">
        <ele>264.597</ele>
        <time>2020-04-02T16:28:41Z</time>
      </trkpt>
      <trkpt lat="43.53921" lon="1.47779">
        <ele>264.504</ele>
        <time>2020-04-02T16:28:47Z</time>
      </trkpt>
      <trkpt lat="43.53927" lon="1.47781">
        <ele>264.429</ele>
        <time>2020-04-02T16:28:52Z</time>
      </trkpt>
      <trkpt lat="43.53932" lon="1.47783">
        <ele>264.352</ele>
        <time>2020-04-02T16:28:57Z</time>
      </trkpt>
      <trkpt lat="43.53936" lon="1.47783">
        <ele>264.261</ele>
        <time>2020-04-02T16:29:02Z</time>
      </trkpt>
      <trkpt lat="43.53939" lon="1.47789">
        <ele>264.141</ele>
        <time>2020-04-02T16:29:08Z</time>
      </trkpt>
      <trkpt lat="43.53942" lon="1.47794">
        <ele>264.037</ele>
        <time>2020-04-02T16:29:13Z</time>
      </trkpt>
      <trkpt lat="43.53951" lon="1.47805">
        <ele>263.906</ele>
        <time>2020-04-02T16:29:19Z</time>
      </trkpt>
      <trkpt lat="43.5396" lon="1.47818">
        <ele>263.795</ele>
        <time>2020-04-02T16:29:24Z</time>
      </trkpt>
      <trkpt lat="43.53964" lon="1.47823">
        <ele>263.69</ele>
        <time>2020-04-02T16:29:29Z</time>
      </trkpt>
      <trkpt lat="43.53971" lon="1.47826">
        <ele>263.574</ele>
        <time>2020-04-02T16:29:35Z</time>
      </trkpt>
      <trkpt lat="43.53978" lon="1.47831">
        <ele>263.461</ele>
        <time>2020-04-02T16:29:41Z</time>
      </trkpt>
      <trkpt lat="43.53982" lon="1.47838">
        <ele>263.368</ele>
        <time>2020-04-02T16:29:46Z</time>
      </trkpt>
      <trkpt lat="43.53987" lon="1.47849">
        <ele>263.26</ele>
        <time>2020-04-02T16:29:52Z</time>
      </trkpt>
      <trkpt lat="43.53994" lon="1.47856">
        <ele>263.176</ele>
        <time>2020-04-02T16:29:57Z</time>
      </trkpt>
      <trkpt lat="43.54" lon="1.47864">
        <ele>263.084</ele>
        <time>2020-04-02T16:30:03Z</time>
      </trkpt>
      <trkpt lat="43.54007" lon="1.47869">
        <ele>263.015</ele>
        <time>2020-04-02T16:30:08Z</time>
      </trkpt>
      <trkpt lat="43.54012" lon="1.47878">
        <ele>262.951</ele>
        <time>2020-04-02T16:30:13Z</time>
      </trkpt>
      <trkpt lat="43.54018" lon="1.47887">
        <ele>262.881</ele>
        <time>2020-04-02T16:30:19Z</time>
      </trkpt>
      <trkpt lat="43.54021" lon="1.47892">
        <ele>262.825</ele>
        <time>2020-04-02T16:30:24Z</time>
      </trkpt>
      <trkpt lat="43.54026" lon="1.47896">
        <ele>262.772</ele>
        <time>2020-04-02T16:30:29Z</time>
      </trkpt>
      <trkpt lat="43.54031" lon="1.47902">
        <ele>262.711</ele>
        <time>2020-04-02T16:30:35Z</time>
      </trkpt>
      <trkpt lat="43.54037" lon="1.47909">
        <ele>262.64</ele>
        <time>2020-04-02T16:30:41Z</time>
      </trkpt>
      <trkpt lat="43.54043" lon="1.47919">
        <ele>262.563</ele>
        <time>2020-04-02T16:30:46Z</time>
      </trkpt>
      <trkpt lat="43.54048" lon="1.4793">
        <ele>262.456</ele>
        <time>2020-04-02T16:30:52Z</time>
      </trkpt>
      <trkpt lat="43.54049" lon="1.47938">
        <ele>262.338</ele>
        <time>2020-04-02T16:30:58Z</time>
      </trkpt>
      <trkpt lat="43.54051" lon="1.47942">
        <ele>262.173</ele>
        <time>2020-04-02T16:31:04Z</time>
      </trkpt>
      <trkpt lat="43.54056" lon="1.47949">
        <ele>262.012</ele>
        <time>2020-04-02T16:31:10Z</time>
      </trkpt>
      <trkpt lat="43.5406" lon="1.47956">
        <ele>261.886</ele>
        <time>2020-04-02T16:31:15Z</time>
      </trkpt>
      <trkpt lat="43.54065" lon="1.47963">
        <ele>261.745</ele>
        <time>2020-04-02T16:31:21Z</time>
      </trkpt>
      <trkpt lat="43.54071" lon="1.47971">
        <ele>261.604</ele>
        <time>2020-04-02T16:31:27Z</time>
      </trkpt>
      <trkpt lat="43.54078" lon="1.47981">
        <ele>261.389</ele>
        <time>2020-04-02T16:31:33Z</time>
      </trkpt>
      <trkpt lat="43.54082" lon="1.47987">
        <ele>261.163</ele>
        <time>2020-04-02T16:31:39Z</time>
      </trkpt>
      <trkpt lat="43.54085" lon="1.47985">
        <ele>260.981</ele>
        <time>2020-04-02T16:31:44Z</time>
      </trkpt>
      <trkpt lat="43.54093" lon="1.47983">
        <ele>260.772</ele>
        <time>2020-04-02T16:31:50Z</time>
      </trkpt>
      <trkpt lat="43.541" lon="1.4798">
        <ele>260.611</ele>
        <time>2020-04-02T16:31:55Z</time>
      </trkpt>
      <trkpt lat="43.54108" lon="1.47969">
        <ele>260.385</ele>
        <time>2020-04-02T16:32:01Z</time>
      </trkpt>
      <trkpt lat="43.54111" lon="1.47961">
        <ele>260.036</ele>
        <time>2020-04-02T16:32:07Z</time>
      </trkpt>
      <trkpt lat="43.54108" lon="1.47956">
        <ele>259.712</ele>
        <time>2020-04-02T16:32:12Z</time>
      </trkpt>
      <trkpt lat="43.54113" lon="1.4796">
        <ele>259.325</ele>
        <time>2020-04-02T16:32:18Z</time>
      </trkpt>
      <trkpt lat="43.54119" lon="1.4796">
        <ele>258.926</ele>
        <time>2020-04-02T16:32:24Z</time>
      </trkpt>
      <trkpt lat="43.54124" lon="1.4796">
        <ele>258.579</ele>
        <time>2020-04-02T16:32:29Z</time>
      </trkpt>
      <trkpt lat="43.54133" lon="1.47963">
        <ele>258.152</ele>
        <time>2020-04-02T16:32:35Z</time>
      </trkpt>
      <trkpt lat="43.54144" lon="1.47966">
        <ele>257.733</ele>
        <time>2020-04-02T16:32:41Z</time>
      </trkpt>
      <trkpt lat="43.54155" lon="1.4796">
        <ele>257.331</ele>
        <time>2020-04-02T16:32:47Z</time>
      </trkpt>
      <trkpt lat="43.54158" lon="1.47956">
        <ele>257.022</ele>
        <time>2020-04-02T16:32:52Z</time>
      </trkpt>
      <trkpt lat="43.54168" lon="1.47952">
        <ele>256.68</ele>
        <time>2020-04-02T16:32:58Z</time>
      </trkpt>
      <trkpt lat="43.54174" lon="1.47945">
        <ele>256.372</ele>
        <time>2020-04-02T16:33:04Z</time>
      </trkpt>
      <trkpt lat="43.5418" lon="1.47935">
        <ele>256.091</ele>
        <time>2020-04-02T16:33:10Z</time>
      </trkpt>
      <trkpt lat="43.54183" lon="1.47931">
        <ele>255.872</ele>
        <time>2020-04-02T16:33:15Z</time>
      </trkpt>
      <trkpt lat="43.54188" lon="1.4793">
        <ele>255.635</ele>
        <time>2020-04-02T16:33:21Z</time>
      </trkpt>
      <trkpt lat="43.54196" lon="1.47931">
        <ele>255.456</ele>
        <time>2020-04-02T16:33:26Z</time>
      </trkpt>
      <trkpt lat="43.54206" lon="1.47936">
        <ele>255.27</ele>
        <time>2020-04-02T16:33:31Z</time>
      </trkpt>
      <trkpt lat="43.54217" lon="1.47941">
        <ele>255.037</ele>
        <time>2020-04-02T16:33:37Z</time>
      </trkpt>
      <trkpt lat="43.54225" lon="1.47938">
        <ele>254.803</ele>
        <time>2020-04-02T16:33:43Z</time>
      </trkpt>
      <trkpt lat="43.54229" lon="1.47936">
        <ele>254.616</ele>
        <time>2020-04-02T16:33:49Z</time>
      </trkpt>
      <trkpt lat="43.54233" lon="1.47937">
        <ele>254.442</ele>
        <time>2020-04-02T16:33:54Z</time>
      </trkpt>
      <trkpt lat="43.54244" lon="1.47938">
        <ele>254.234</ele>
        <time>2020-04-02T16:34:00Z</time>
      </trkpt>
      <trkpt lat="43.54252" lon="1.4794">
        <ele>254.061</ele>
        <time>2020-04-02T16:34:05Z</time>
      </trkpt>
      <trkpt lat="43.54257" lon="1.47941">
        <ele>253.853</ele>
        <time>2020-04-02T16:34:11Z</time>
      </trkpt>
      <trkpt lat="43.54264" lon="1.47942">
        <ele>253.683</ele>
        <time>2020-04-02T16:34:16Z</time>
      </trkpt>
      <trkpt lat="43.54273" lon="1.47945">
        <ele>253.521</ele>
        <time>2020-04-02T16:34:21Z</time>
      </trkpt>
      <trkpt lat="43.5428" lon="1.47947">
        <ele>253.37</ele>
        <time>2020-04-02T16:34:26Z</time>
      </trkpt>
      <trkpt lat="43.54284" lon="1.47944">
        <ele>253.191</ele>
        <time>2020-04-02T16:34:32Z</time>
      </trkpt>
      <trkpt lat="43.5429" lon="1.47938">
        <ele>253.001</ele>
        <time>2020-04-02T16:34:38Z</time>
      </trkpt>
      <trkpt lat="43.54295" lon="1.47937">
        <ele>252.817</ele>
        <time>2020-04-02T16:34:44Z</time>
      </trkpt>
      <trkpt lat="43.54301" lon="1.47935">
        <ele>252.635</ele>
        <time>2020-04-02T16:34:50Z</time>
      </trkpt>
      <trkpt lat="43.54306" lon="1.47933">
        <ele>252.48</ele>
        <time>2020-04-02T16:34:55Z</time>
      </trkpt>
      <trkpt lat="43.54316" lon="1.4793">
        <ele>252.27</ele>
        <time>2020-04-02T16:35:01Z</time>
      </trkpt>
      <trkpt lat="43.54326" lon="1.47923">
        <ele>252.051</ele>
        <time>2020-04-02T16:35:07Z</time>
      </trkpt>
      <trkpt lat="43.54338" lon="1.47918">
        <ele>251.872</ele>
        <time>2020-04-02T16:35:12Z</time>
      </trkpt>
      <trkpt lat="43.54347" lon="1.47912">
        <ele>251.698</ele>
        <time>2020-04-02T16:35:17Z</time>
      </trkpt>
      <trkpt lat="43.54356" lon="1.47909">
        <ele>251.5</ele>
        <time>2020-04-02T16:35:23Z</time>
      </trkpt>
      <trkpt lat="43.54368" lon="1.47905">
        <ele>251.32</ele>
        <time>2020-04-02T16:35:29Z</time>
      </trkpt>
      <trkpt lat="43.54371" lon="1.47905">
        <ele>251.152</ele>
        <time>2020-04-02T16:35:35Z</time>
      </trkpt>
      <trkpt lat="43.54382" lon="1.47904">
        <ele>251.018</ele>
        <time>2020-04-02T16:35:40Z</time>
      </trkpt>
      <trkpt lat="43.5439" lon="1.47907">
        <ele>250.837</ele>
        <time>2020-04-02T16:35:46Z</time>
      </trkpt>
      <trkpt lat="43.54396" lon="1.4791">
        <ele>250.71</ele>
        <time>2020-04-02T16:35:51Z</time>
      </trkpt>
      <trkpt lat="43.54403" lon="1.47906">
        <ele>250.524</ele>
        <time>2020-04-02T16:35:57Z</time>
      </trkpt>
      <trkpt lat="43.54406" lon="1.47903">
        <ele>250.344</ele>
        <time>2020-04-02T16:36:03Z</time>
      </trkpt>
      <trkpt lat="43.54409" lon="1.47903">
        <ele>250.155</ele>
        <time>2020-04-02T16:36:09Z</time>
      </trkpt>
      <trkpt lat="43.54418" lon="1.479">
        <ele>249.99</ele>
        <time>2020-04-02T16:36:14Z</time>
      </trkpt>
      <trkpt lat="43.54426" lon="1.47901">
        <ele>249.798</ele>
        <time>2020-04-02T16:36:20Z</time>
      </trkpt>
      <trkpt lat="43.54433" lon="1.47898">
        <ele>249.627</ele>
        <time>2020-04-02T16:36:26Z</time>
      </trkpt>
      <trkpt lat="43.54441" lon="1.47896">
        <ele>249.496</ele>
        <time>2020-04-02T16:36:31Z</time>
      </trkpt>
      <trkpt lat="43.54452" lon="1.47891">
        <ele>249.326</ele>
        <time>2020-04-02T16:36:37Z</time>
      </trkpt>
      <trkpt lat="43.54457" lon="1.47889">
        <ele>249.195</ele>
        <time>2020-04-02T16:36:42Z</time>
      </trkpt>
      <trkpt lat="43.54465" lon="1.47886">
        <ele>248.997</ele>
        <time>2020-04-02T16:36:48Z</time>
      </trkpt>
      <trkpt lat="43.54467" lon="1.47885">
        <ele>248.861</ele>
        <time>2020-04-02T16:36:53Z</time>
      </trkpt>
      <trkpt lat="43.54478" lon="1.47882">
        <ele>248.666</ele>
        <time>2020-04-02T16:36:59Z</time>
      </trkpt>
      <trkpt lat="43.54483" lon="1.47879">
        <ele>248.504</ele>
        <time>2020-04-02T16:37:04Z</time>
      </trkpt>
      <trkpt lat="43.54489" lon="1.47878">
        <ele>248.333</ele>
        <time>2020-04-02T16:37:10Z</time>
      </trkpt>
      <trkpt lat="43.54496" lon="1.47876">
        <ele>248.109</ele>
        <time>2020-04-02T16:37:16Z</time>
      </trkpt>
      <trkpt lat="43.54505" lon="1.4787">
        <ele>247.885</ele>
        <time>2020-04-02T16:37:22Z</time>
      </trkpt>
      <trkpt lat="43.54514" lon="1.47865">
        <ele>247.672</ele>
        <time>2020-04-02T16:37:28Z</time>
      </trkpt>
      <trkpt lat="43.54523" lon="1.47863">
        <ele>247.475</ele>
        <time>2020-04-02T16:37:34Z</time>
      </trkpt>
      <trkpt lat="43.54529" lon="1.47861">
        <ele>247.284</ele>
        <time>2020-04-02T16:37:40Z</time>
      </trkpt>
      <trkpt lat="43.54534" lon="1.4786">
        <ele>247.096</ele>
        <time>2020-04-02T16:37:46Z</time>
      </trkpt>
      <trkpt lat="43.54541" lon="1.47859">
        <ele>246.901</ele>
        <time>2020-04-02T16:37:52Z</time>
      </trkpt>
      <trkpt lat="43.54549" lon="1.47855">
        <ele>246.779</ele>
        <time>2020-04-02T16:37:58Z</time>
      </trkpt>
      <trkpt lat="43.5456" lon="1.47859">
        <ele>246.557</ele>
        <time>2020-04-02T16:38:04Z</time>
      </trkpt>
      <trkpt lat="43.54568" lon="1.47854">
        <ele>246.343</ele>
        <time>2020-04-02T16:38:10Z</time>
      </trkpt>
      <trkpt lat="43.54577" lon="1.47846">
        <ele>246.124</ele>
        <time>2020-04-02T16:38:16Z</time>
      </trkpt>
      <trkpt lat="43.5458" lon="1.47845">
        <ele>245.917</ele>
        <time>2020-04-02T16:38:22Z</time>
      </trkpt>
      <trkpt lat="43.54586" lon="1.47845">
        <ele>245.709</ele>
        <time>2020-04-02T16:38:28Z</time>
      </trkpt>
      <trkpt lat="43.54591" lon="1.47843">
        <ele>245.514</ele>
        <time>2020-04-02T16:38:33Z</time>
      </trkpt>
      <trkpt lat="43.54597" lon="1.47839">
        <ele>245.306</ele>
        <time>2020-04-02T16:38:38Z</time>
      </trkpt>
      <trkpt lat="43.54603" lon="1.47833">
        <ele>245.051</ele>
        <time>2020-04-02T16:38:44Z</time>
      </trkpt>
      <trkpt lat="43.5461" lon="1.47829">
        <ele>244.812</ele>
        <time>2020-04-02T16:38:50Z</time>
      </trkpt>
      <trkpt lat="43.54619" lon="1.47826">
        <ele>244.585</ele>
        <time>2020-04-02T16:38:56Z</time>
      </trkpt>
      <trkpt lat="43.54624" lon="1.47826">
        <ele>244.37</ele>
        <time>2020-04-02T16:39:02Z</time>
      </trkpt>
      <trkpt lat="43.54632" lon="1.47831">
        <ele>244.191</ele>
        <time>2020-04-02T16:39:07Z</time>
      </trkpt>
      <trkpt lat="43.5464" lon="1.47835">
        <ele>243.977</ele>
        <time>2020-04-02T16:39:13Z</time>
      </trkpt>
      <trkpt lat="43.54647" lon="1.47839">
        <ele>243.768</ele>
        <time>2020-04-02T16:39:19Z</time>
      </trkpt>
      <trkpt lat="43.54652" lon="1.47843">
        <ele>243.595</ele>
        <time>2020-04-02T16:39:24Z</time>
      </trkpt>
      <trkpt lat="43.54659" lon="1.47848">
        <ele>243.391</ele>
        <time>2020-04-02T16:39:30Z</time>
      </trkpt>
      <trkpt lat="43.54666" lon="1.47851">
        <ele>243.224</ele>
        <time>2020-04-02T16:39:35Z</time>
      </trkpt>
      <trkpt lat="43.54673" lon="1.47854">
        <ele>243.061</ele>
        <time>2020-04-02T16:39:40Z</time>
      </trkpt>
      <trkpt lat="43.5468" lon="1.47856">
        <ele>242.872</ele>
        <time>2020-04-02T16:39:46Z</time>
      </trkpt>
      <trkpt lat="43.54688" lon="1.4786">
        <ele>242.687</ele>
        <time>2020-04-02T16:39:52Z</time>
      </trkpt>
      <trkpt lat="43.54694" lon="1.47862">
        <ele>242.538</ele>
        <time>2020-04-02T16:39:57Z</time>
      </trkpt>
      <trkpt lat="43.54702" lon="1.47867">
        <ele>242.391</ele>
        <time>2020-04-02T16:40:02Z</time>
      </trkpt>
      <trkpt lat="43.54709" lon="1.47871">
        <ele>242.22</ele>
        <time>2020-04-02T16:40:08Z</time>
      </trkpt>
      <trkpt lat="43.54718" lon="1.47877">
        <ele>242.079</ele>
        <time>2020-04-02T16:40:13Z</time>
      </trkpt>
      <trkpt lat="43.54722" lon="1.47883">
        <ele>241.938</ele>
        <time>2020-04-02T16:40:18Z</time>
      </trkpt>
      <trkpt lat="43.54727" lon="1.47887">
        <ele>241.766</ele>
        <time>2020-04-02T16:40:24Z</time>
      </trkpt>
      <trkpt lat="43.54733" lon="1.4789">
        <ele>241.624</ele>
        <time>2020-04-02T16:40:29Z</time>
      </trkpt>
      <trkpt lat="43.54738" lon="1.47896">
        <ele>241.49</ele>
        <time>2020-04-02T16:40:34Z</time>
      </trkpt>
      <trkpt lat="43.5474" lon="1.4789">
        <ele>241.33</ele>
        <time>2020-04-02T16:40:40Z</time>
      </trkpt>
      <trkpt lat="43.54742" lon="1.47883">
        <ele>241.178</ele>
        <time>2020-04-02T16:40:46Z</time>
      </trkpt>
      <trkpt lat="43.54745" lon="1.47874">
        <ele>241.056</ele>
        <time>2020-04-02T16:40:51Z</time>
      </trkpt>
      <trkpt lat="43.54747" lon="1.47863">
        <ele>240.911</ele>
        <time>2020-04-02T16:40:57Z</time>
      </trkpt>
      <trkpt lat="43.5475" lon="1.47856">
        <ele>240.795</ele>
        <time>2020-04-02T16:41:02Z</time>
      </trkpt>
      <trkpt lat="43.54756" lon="1.47849">
        <ele>240.66</ele>
        <time>2020-04-02T16:41:08Z</time>
      </trkpt>
      <trkpt lat="43.54767" lon="1.47837">
        <ele>240.52</ele>
        <time>2020-04-02T16:41:14Z</time>
      </trkpt>
      <trkpt lat="43.54773" lon="1.47828">
        <ele>240.383</ele>
        <time>2020-04-02T16:41:19Z</time>
      </trkpt>
      <trkpt lat="43.54776" lon="1.47822">
        <ele>240.24</ele>
        <time>2020-04-02T16:41:24Z</time>
      </trkpt>
      <trkpt lat="43.5478" lon="1.47814">
        <ele>240.062</ele>
        <time>2020-04-02T16:41:30Z</time>
      </trkpt>
      <trkpt lat="43.54782" lon="1.47809">
        <ele>239.879</ele>
        <time>2020-04-02T16:41:36Z</time>
      </trkpt>
      <trkpt lat="43.54784" lon="1.47806">
        <ele>239.722</ele>
        <time>2020-04-02T16:41:41Z</time>
      </trkpt>
      <trkpt lat="43.54788" lon="1.47801">
        <ele>239.527</ele>
        <time>2020-04-02T16:41:47Z</time>
      </trkpt>
      <trkpt lat="43.54801" lon="1.47798">
        <ele>239.32</ele>
        <time>2020-04-02T16:41:53Z</time>
      </trkpt>
      <trkpt lat="43.54806" lon="1.47794">
        <ele>239.156</ele>
        <time>2020-04-02T16:41:58Z</time>
      </trkpt>
      <trkpt lat="43.54811" lon="1.47792">
        <ele>238.969</ele>
        <time>2020-04-02T16:42:04Z</time>
      </trkpt>
      <trkpt lat="43.54816" lon="1.47789">
        <ele>238.819</ele>
        <time>2020-04-02T16:42:09Z</time>
      </trkpt>
      <trkpt lat="43.54822" lon="1.47786">
        <ele>238.649</ele>
        <time>2020-04-02T16:42:15Z</time>
      </trkpt>
      <trkpt lat="43.54828" lon="1.47784">
        <ele>238.493</ele>
        <time>2020-04-02T16:42:21Z</time>
      </trkpt>
      <trkpt lat="43.54834" lon="1.47781">
        <ele>238.347</ele>
        <time>2020-04-02T16:42:27Z</time>
      </trkpt>
      <trkpt lat="43.54839" lon="1.47778">
        <ele>238.209</ele>
        <time>2020-04-02T16:42:33Z</time>
      </trkpt>
      <trkpt lat="43.54846" lon="1.47774">
        <ele>238.081</ele>
        <time>2020-04-02T16:42:39Z</time>
      </trkpt>
      <trkpt lat="43.54853" lon="1.4777">
        <ele>237.979</ele>
        <time>2020-04-02T16:42:44Z</time>
      </trkpt>
      <trkpt lat="43.54865" lon="1.47765">
        <ele>237.85</ele>
        <time>2020-04-02T16:42:50Z</time>
      </trkpt>
      <trkpt lat="43.54872" lon="1.47753">
        <ele>237.722</ele>
        <time>2020-04-02T16:42:55Z</time>
      </trkpt>
      <trkpt lat="43.54878" lon="1.47746">
        <ele>237.579</ele>
        <time>2020-04-02T16:43:00Z</time>
      </trkpt>
      <trkpt lat="43.54893" lon="1.47739">
        <ele>237.402</ele>
        <time>2020-04-02T16:43:06Z</time>
      </trkpt>
      <trkpt lat="43.54901" lon="1.47737">
        <ele>237.225</ele>
        <time>2020-04-02T16:43:12Z</time>
      </trkpt>
      <trkpt lat="43.54908" lon="1.47733">
        <ele>237.047</ele>
        <time>2020-04-02T16:43:18Z</time>
      </trkpt>
      <trkpt lat="43.54912" lon="1.47729">
        <ele>236.897</ele>
        <time>2020-04-02T16:43:23Z</time>
      </trkpt>
      <trkpt lat="43.54918" lon="1.47723">
        <ele>236.714</ele>
        <time>2020-04-02T16:43:29Z</time>
      </trkpt>
      <trkpt lat="43.54929" lon="1.47719">
        <ele>236.526</ele>
        <time>2020-04-02T16:43:35Z</time>
      </trkpt>
      <trkpt lat="43.54932" lon="1.47715">
        <ele>236.337</ele>
        <time>2020-04-02T16:43:41Z</time>
      </trkpt>
      <trkpt lat="43.54936" lon="1.4771">
        <ele>236.154</ele>
        <time>2020-04-02T16:43:47Z</time>
      </trkpt>
      <trkpt lat="43.54941" lon="1.47707">
        <ele>235.997</ele>
        <time>2020-04-02T16:43:52Z</time>
      </trkpt>
      <trkpt lat="43.54949" lon="1.47704">
        <ele>235.801</ele>
        <time>2020-04-02T16:43:58Z</time>
      </trkpt>
      <trkpt lat="43.54954" lon="1.47702">
        <ele>235.64</ele>
        <time>2020-04-02T16:44:03Z</time>
      </trkpt>
      <trkpt lat="43.54965" lon="1.47696">
        <ele>235.443</ele>
        <time>2020-04-02T16:44:09Z</time>
      </trkpt>
      <trkpt lat="43.54971" lon="1.47692">
        <ele>235.278</ele>
        <time>2020-04-02T16:44:14Z</time>
      </trkpt>
      <trkpt lat="43.54975" lon="1.4769">
        <ele>235.093</ele>
        <time>2020-04-02T16:44:20Z</time>
      </trkpt>
      <trkpt lat="43.54978" lon="1.47688">
        <ele>234.94</ele>
        <time>2020-04-02T16:44:25Z</time>
      </trkpt>
      <trkpt lat="43.5499" lon="1.47684">
        <ele>234.75</ele>
        <time>2020-04-02T16:44:31Z</time>
      </trkpt>
      <trkpt lat="43.54994" lon="1.47681">
        <ele>234.592</ele>
        <time>2020-04-02T16:44:36Z</time>
      </trkpt>
      <trkpt lat="43.55" lon="1.47679">
        <ele>234.434</ele>
        <time>2020-04-02T16:44:41Z</time>
      </trkpt>
      <trkpt lat="43.55008" lon="1.47677">
        <ele>234.271</ele>
        <time>2020-04-02T16:44:46Z</time>
      </trkpt>
      <trkpt lat="43.55019" lon="1.47672">
        <ele>234.068</ele>
        <time>2020-04-02T16:44:52Z</time>
      </trkpt>
      <trkpt lat="43.55023" lon="1.47669">
        <ele>233.858</ele>
        <time>2020-04-02T16:44:58Z</time>
      </trkpt>
      <trkpt lat="43.55027" lon="1.47667">
        <ele>233.67</ele>
        <time>2020-04-02T16:45:03Z</time>
      </trkpt>
      <trkpt lat="43.55031" lon="1.47668">
        <ele>233.463</ele>
        <time>2020-04-02T16:45:09Z</time>
      </trkpt>
      <trkpt lat="43.55031" lon="1.47669">
        <ele>233.402</ele>
        <time>2020-04-02T16:45:15Z</time>
      </trkpt>
      <trkpt lat="43.55032" lon="1.47669">
        <ele>233.377</ele>
        <time>2020-04-02T16:45:21Z</time>
      </trkpt>
      <trkpt lat="43.55032" lon="1.47669">
        <ele>233.355</ele>
        <time>2020-04-02T16:45:26Z</time>
      </trkpt>
    </trkseg>
  </trk>
</gpx>